San Diego, CA (92174)

6:54 AM PDT on September 29, 2016 (GMT -0700)
National City | | Change Station

Elev 157 ft 32.69 °N, 117.08 °W | Updated 5 seconds ago

Scattered Clouds
Scattered Clouds
65.5 °F
Feels Like 65.5 °F
N
2.7
Wind Variable Wind from NNE

Today
High -- | Low -- °F
--% Chance of Precip.
Yesterday
High -- | Low -- °F
Precip. -- in
Pressure 29.99 in
Visibility 10.0 miles
Clouds Few 10000 ft
Scattered Clouds 25000 ft
Dew Point 55 °F
Humidity 69%
Rainfall 0.00 in
Snow Depth Not available.
6:41 AM 6:34 PM
Waning Crescent, 2% visible
METAR KSAN 291351Z 00000KT 10SM FEW100 SCT250 22/12 A2999 RMK AO2 SLP156 T02170117
Pressure 29.99 in
Visibility 10.0 miles
Clouds Few 10000 ft
Scattered Clouds 25000 ft
Dew Point 55 °F
Humidity 69%
Rainfall 0.00 in
Snow Depth Not available.
6:41 AM 6:34 PM
Waning Crescent, 2% visible
METAR KSAN 291351Z 00000KT 10SM FEW100 SCT250 22/12 A2999 RMK AO2 SLP156 T02170117

10-Day Weather Forecast

Almanac

Astronomy

Sep. 29, 2016 Rise Set
Actual Time
Civil Twilight
Nautical Twilight
Astronomical Twilight
Moon
Length of Visible Light
Length of Day
Tomorrow will be .
, % of the Moon is Illuminated

Today's Extremes

State Highs State Lows

Community

WunderPhotos

Upload Photos

1,942,470 photos uploaded!

WunderBlog® & News

Nearby

Air Quality

  Air Quality AQ Index Pollutant
Not available.

Snow Depth

Station Depth Elevation

Earthquake Activity

City Distance Mag. Time & Date
Minimum magnitude displayed is 2.5.

Coastal Water Temperatures

Place Temperature

Stations

Nearby Weather Stations

Station Location Temp. Windchill Dew Point Humidity Wind Precip. Elev Updated Type
                   

Watches & Warnings

There are currently no watches in effect.